Time;durP1;ratioP1;P1;durP2;ratioP2;P2;SDS_P1;SDS_P2;PMS_P1;PMS_P2;Temp;Humidity;BMP_temperature;BMP_pressure;BME280_temperature;BME280_humidity;BME280_pressure;Samples;Min_cycle;Max_cycle;Signal;HPM_P1;HPM_P2
2023/11/02 00:02:02;;;;;;;4.30;0.95;;;;;;;;;;5018740;28;20030;-81
2023/11/02 00:04:28;;;;;;;3.53;1.02;;;;;;;;;;5017521;28;20033;-80
2023/11/02 00:06:55;;;;;;;3.95;1.27;;;;;;;;;;5014161;28;20026;-81
2023/11/02 00:09:31;;;;;;;3.30;1.10;;;;;;;;;;5022480;28;20044;-81
2023/11/02 00:12:04;;;;;;;5.75;1.10;;;;;;;;;;5016767;28;20025;-81
2023/11/02 00:14:42;;;;;;;3.67;1.40;;;;;;;;;;5038601;28;20023;-81
2023/11/02 00:17:36;;;;;;;4.15;1.08;;;;;;;;;;5034162;28;20061;-80
2023/11/02 00:20:08;;;;;;;3.28;1.15;;;;;;;;;;5033864;28;20128;-81
2023/11/02 00:22:44;;;;;;;4.85;1.02;;;;;;;;;;5024560;28;20678;-81
2023/11/02 00:25:21;;;;;;;3.50;1.00;;;;;;;;;;5019333;28;20047;-86
2023/11/02 00:27:46;;;;;;;3.40;1.10;;;;;;;;;;5023782;28;20626;-81
2023/11/02 00:30:14;;;;;;;3.83;1.33;;;;;;;;;;5019728;28;20043;-81
2023/11/02 00:32:40;;;;;;;3.28;0.82;;;;;;;;;;5034382;28;20029;-84
2023/11/02 00:35:05;;;;;;;3.83;1.20;;;;;;;;;;5022784;28;20034;-86
2023/11/02 00:37:30;;;;;;;4.32;0.90;;;;;;;;;;5021296;28;20031;-83
2023/11/02 00:39:56;;;;;;;3.17;1.00;;;;;;;;;;5023077;28;20056;-86
2023/11/02 00:42:23;;;;;;;4.50;0.93;;;;;;;;;;5020919;28;20025;-87
2023/11/02 00:44:48;;;;;;;4.10;0.90;;;;;;;;;;5022509;28;20549;-81
2023/11/02 00:47:18;;;;;;;4.00;0.90;;;;;;;;;;5023499;28;20139;-81
2023/11/02 00:49:43;;;;;;;4.68;0.88;;;;;;;;;;5022753;28;20477;-81
2023/11/02 00:52:08;;;;;;;4.05;0.85;;;;;;;;;;5023494;28;20065;-81
2023/11/02 00:54:43;;;;;;;3.05;1.10;;;;;;;;;;5019391;28;20120;-81
2023/11/02 00:57:12;;;;;;;3.08;1.20;;;;;;;;;;5018410;28;20496;-81
2023/11/02 00:59:38;;;;;;;4.00;0.98;;;;;;;;;;5020478;28;20018;-81
2023/11/02 01:02:05;;;;;;;4.88;1.00;;;;;;;;;;5021422;28;20040;-81
2023/11/02 01:04:39;;;;;;;2.78;0.90;;;;;;;;;;5020607;28;20033;-81
2023/11/02 01:07:05;;;;;;;2.78;0.90;;;;;;;;;;5024429;28;20087;-80
2023/11/02 01:09:42;;;;;;;4.30;1.08;;;;;;;;;;5016482;28;20041;-81
2023/11/02 01:12:08;;;;;;;2.40;1.00;;;;;;;;;;5017311;28;20084;-81
2023/11/02 01:14:42;;;;;;;3.67;0.90;;;;;;;;;;5014422;28;20033;-81
2023/11/02 01:17:09;;;;;;;4.03;0.90;;;;;;;;;;5034261;28;20032;-81
2023/11/02 01:19:52;;;;;;;4.35;0.90;;;;;;;;;;5021890;28;20482;-81
2023/11/02 01:22:32;;;;;;;4.70;1.23;;;;;;;;;;5022401;28;20037;-81
2023/11/02 01:25:18;;;;;;;4.18;0.90;;;;;;;;;;5021029;28;20037;-81
2023/11/02 01:27:44;;;;;;;3.58;1.00;;;;;;;;;;5016528;28;20052;-81
2023/11/02 01:30:29;;;;;;;2.45;0.90;;;;;;;;;;5022122;28;20021;-81
2023/11/02 01:32:55;;;;;;;4.25;1.05;;;;;;;;;;5022179;28;20389;-81
2023/11/02 01:35:43;;;;;;;4.53;0.98;;;;;;;;;;5030387;28;20029;-81
2023/11/02 01:38:13;;;;;;;2.63;0.70;;;;;;;;;;5024454;28;20543;-81
2023/11/02 01:40:59;;;;;;;4.22;1.15;;;;;;;;;;5025709;28;20143;-81
2023/11/02 01:43:52;;;;;;;3.47;0.80;;;;;;;;;;5025257;28;20058;-81
2023/11/02 01:46:25;;;;;;;3.38;0.85;;;;;;;;;;5036305;28;20478;-81
2023/11/02 01:49:51;;;;;;;4.75;1.30;;;;;;;;;;5021860;28;20732;-81
2023/11/02 01:52:39;;;;;;;2.78;0.60;;;;;;;;;;5023884;28;20039;-81
2023/11/02 01:55:32;;;;;;;2.22;0.80;;;;;;;;;;5024535;28;20061;-81
2023/11/02 01:58:09;;;;;;;3.60;0.70;;;;;;;;;;5027402;28;20018;-81
2023/11/02 02:00:48;;;;;;;3.50;1.00;;;;;;;;;;5026068;28;20051;-81
2023/11/02 02:03:21;;;;;;;2.90;0.85;;;;;;;;;;5024766;28;20484;-81
2023/11/02 02:05:54;;;;;;;5.80;0.98;;;;;;;;;;5032404;28;20118;-81
2023/11/02 02:08:34;;;;;;;4.18;0.90;;;;;;;;;;5026680;28;20448;-81
2023/11/02 02:11:15;;;;;;;3.42;0.80;;;;;;;;;;5028108;28;20370;-81
2023/11/02 02:14:18;;;;;;;3.75;0.85;;;;;;;;;;5018456;28;20105;-80
2023/11/02 02:17:06;;;;;;;3.72;0.90;;;;;;;;;;4984994;28;20517;-81
2023/11/02 02:20:02;;;;;;;2.92;0.60;;;;;;;;;;5024864;28;20247;-81
2023/11/02 02:22:37;;;;;;;2.72;0.73;;;;;;;;;;5024458;28;20035;-81
2023/11/02 02:25:32;;;;;;;4.90;1.02;;;;;;;;;;5026980;28;20029;-81
2023/11/02 02:28:00;;;;;;;4.72;0.80;;;;;;;;;;5037876;28;20216;-81
2023/11/02 02:31:05;;;;;;;5.38;0.88;;;;;;;;;;5022484;28;20032;-80
2023/11/02 02:33:52;;;;;;;1.35;0.55;;;;;;;;;;5024704;28;20021;-81
2023/11/02 02:36:44;;;;;;;3.60;0.75;;;;;;;;;;5027816;28;20057;-81
2023/11/02 02:39:17;;;;;;;2.88;0.82;;;;;;;;;;5025523;28;20026;-81
2023/11/02 02:41:44;;;;;;;2.85;0.70;;;;;;;;;;5026369;28;20033;-81
2023/11/02 02:44:13;;;;;;;4.50;0.90;;;;;;;;;;5028542;28;20489;-80
2023/11/02 02:46:40;;;;;;;2.95;0.80;;;;;;;;;;5023904;28;20540;-81
2023/11/02 02:49:05;;;;;;;4.90;1.00;;;;;;;;;;5025956;28;20049;-81
2023/11/02 02:51:35;;;;;;;2.40;0.98;;;;;;;;;;5027319;28;20036;-81
2023/11/02 02:54:12;;;;;;;4.40;0.73;;;;;;;;;;5041503;28;20481;-80
2023/11/02 02:56:41;;;;;;;4.40;0.98;;;;;;;;;;5036741;28;20535;-81
2023/11/02 02:59:09;;;;;;;4.32;1.13;;;;;;;;;;5025419;28;20034;-79
2023/11/02 03:01:42;;;;;;;4.03;0.90;;;;;;;;;;5042380;28;20079;-79
2023/11/02 03:04:14;;;;;;;2.28;0.80;;;;;;;;;;5023984;28;20026;-85
2023/11/02 03:06:43;;;;;;;2.20;0.80;;;;;;;;;;5028966;28;20075;-83
2023/11/02 03:09:17;;;;;;;4.40;0.90;;;;;;;;;;5045572;28;20029;-85
2023/11/02 03:11:44;;;;;;;6.32;0.80;;;;;;;;;;5025921;28;20517;-85
2023/11/02 03:14:13;;;;;;;4.88;1.10;;;;;;;;;;5026397;28;20030;-86
2023/11/02 03:16:41;;;;;;;6.85;1.25;;;;;;;;;;5023496;28;20044;-84
2023/11/02 03:19:07;;;;;;;2.85;0.75;;;;;;;;;;5020992;28;20033;-85
2023/11/02 03:21:32;;;;;;;3.15;1.10;;;;;;;;;;5030020;28;20032;-81
2023/11/02 03:24:30;;;;;;;3.65;0.93;;;;;;;;;;5021971;28;20103;-80
2023/11/02 03:27:07;;;;;;;6.15;0.90;;;;;;;;;;5029778;28;20042;-79
2023/11/02 03:29:51;;;;;;;5.40;1.00;;;;;;;;;;5024139;28;20104;-79
2023/11/02 03:32:25;;;;;;;3.90;1.10;;;;;;;;;;5021323;28;20508;-79
2023/11/02 03:35:03;;;;;;;1.45;0.73;;;;;;;;;;5030465;28;20029;-78
2023/11/02 03:37:37;;;;;;;5.47;0.85;;;;;;;;;;5022867;28;20112;-78
2023/11/02 03:40:21;;;;;;;5.80;0.80;;;;;;;;;;5029698;28;20037;-78
2023/11/02 03:43:04;;;;;;;4.22;0.85;;;;;;;;;;5022445;28;20455;-79
2023/11/02 03:45:48;;;;;;;4.18;0.70;;;;;;;;;;5042915;28;20036;-79
2023/11/02 03:48:45;;;;;;;3.42;0.80;;;;;;;;;;5037084;28;20044;-79
2023/11/02 03:51:39;;;;;;;3.85;0.90;;;;;;;;;;5024090;28;20032;-79
2023/11/02 03:54:42;;;;;;;2.05;0.50;;;;;;;;;;5026129;28;20026;-78
2023/11/02 03:57:39;;;;;;;4.45;0.60;;;;;;;;;;5024186;28;20025;-79
2023/11/02 04:00:26;;;;;;;3.13;0.90;;;;;;;;;;4997698;28;20041;-80
2023/11/02 04:02:57;;;;;;;2.67;0.70;;;;;;;;;;5023226;28;20508;-79
2023/11/02 04:05:24;;;;;;;2.95;0.60;;;;;;;;;;5023696;28;20037;-79
2023/11/02 04:08:12;;;;;;;2.92;0.65;;;;;;;;;;5029984;28;20030;-79
2023/11/02 04:10:59;;;;;;;4.15;0.80;;;;;;;;;;5027661;28;20029;-79
2023/11/02 04:14:01;;;;;;;3.28;0.90;;;;;;;;;;5024796;28;20501;-84
2023/11/02 04:16:28;;;;;;;7.05;1.60;;;;;;;;;;5023753;28;20021;-79
2023/11/02 04:18:53;;;;;;;2.95;0.73;;;;;;;;;;5018655;28;20025;-80
2023/11/02 04:21:19;;;;;;;5.72;1.38;;;;;;;;;;5021804;28;20028;-79
2023/11/02 04:23:44;;;;;;;3.47;0.80;;;;;;;;;;5019485;28;20041;-79
2023/11/02 04:26:09;;;;;;;6.05;1.00;;;;;;;;;;5031824;28;20021;-81
2023/11/02 04:28:35;;;;;;;2.67;0.80;;;;;;;;;;5015361;28;20053;-80
2023/11/02 04:31:01;;;;;;;3.53;0.60;;;;;;;;;;5020664;28;20030;-78
2023/11/02 04:33:26;;;;;;;4.50;0.90;;;;;;;;;;5019441;28;20120;-79
2023/11/02 04:35:51;;;;;;;3.78;0.90;;;;;;;;;;5023747;28;20075;-79
2023/11/02 04:38:17;;;;;;;3.80;0.80;;;;;;;;;;5023676;28;20088;-79
2023/11/02 04:40:42;;;;;;;2.97;1.27;;;;;;;;;;5021845;28;20049;-78
2023/11/02 04:43:08;;;;;;;4.47;0.90;;;;;;;;;;5024614;28;20095;-79
2023/11/02 04:45:34;;;;;;;2.45;0.57;;;;;;;;;;5023598;28;20425;-79
2023/11/02 04:47:59;;;;;;;3.03;0.80;;;;;;;;;;5022848;28;20026;-79
2023/11/02 04:50:26;;;;;;;5.30;0.93;;;;;;;;;;5023007;28;20041;-79
2023/11/02 04:52:52;;;;;;;4.82;0.85;;;;;;;;;;5031805;28;20079;-79
2023/11/02 04:55:19;;;;;;;4.13;0.88;;;;;;;;;;5024934;28;20029;-80
2023/11/02 04:57:44;;;;;;;3.55;0.93;;;;;;;;;;5022428;28;20084;-79
2023/11/02 05:00:10;;;;;;;3.55;0.93;;;;;;;;;;5019955;28;20037;-79
2023/11/02 05:02:36;;;;;;;2.55;0.63;;;;;;;;;;5017868;28;20025;-80
2023/11/02 05:05:02;;;;;;;4.65;0.70;;;;;;;;;;5044923;28;20453;-79
2023/11/02 05:07:28;;;;;;;1.95;0.70;;;;;;;;;;5017499;28;20025;-78
2023/11/02 05:09:53;;;;;;;3.97;0.70;;;;;;;;;;5023656;28;20032;-81
2023/11/02 05:12:19;;;;;;;5.57;0.80;;;;;;;;;;5026653;28;20037;-85
2023/11/02 05:14:44;;;;;;;2.90;0.82;;;;;;;;;;5021908;28;20056;-82
2023/11/02 05:17:10;;;;;;;2.28;0.80;;;;;;;;;;5024944;28;20032;-85
2023/11/02 05:19:37;;;;;;;3.35;0.80;;;;;;;;;;5023612;28;20087;-85
2023/11/02 05:22:03;;;;;;;4.80;0.82;;;;;;;;;;5021207;28;20053;-84
2023/11/02 05:24:28;;;;;;;3.22;0.77;;;;;;;;;;5028704;28;20055;-80
2023/11/02 05:26:54;;;;;;;2.53;0.60;;;;;;;;;;5021950;28;20450;-80
2023/11/02 05:29:21;;;;;;;2.67;0.65;;;;;;;;;;5018192;28;20071;-80
2023/11/02 05:31:46;;;;;;;5.40;0.93;;;;;;;;;;5027316;28;20517;-80
2023/11/02 05:34:12;;;;;;;2.60;0.80;;;;;;;;;;5018706;28;20676;-80
2023/11/02 05:36:37;;;;;;;2.42;0.60;;;;;;;;;;5026149;28;20029;-81
2023/11/02 05:39:05;;;;;;;1.98;0.57;;;;;;;;;;5030493;28;20064;-80
2023/11/02 05:41:31;;;;;;;1.77;0.60;;;;;;;;;;5028652;28;20527;-80
2023/11/02 05:43:56;;;;;;;4.70;0.70;;;;;;;;;;5021243;28;20025;-81
2023/11/02 05:46:22;;;;;;;1.92;1.08;;;;;;;;;;5037777;28;20566;-78
2023/11/02 05:48:47;;;;;;;4.25;0.77;;;;;;;;;;5021498;28;20507;-79
2023/11/02 05:51:13;;;;;;;3.10;0.80;;;;;;;;;;5016391;28;20485;-79
2023/11/02 05:53:38;;;;;;;4.55;0.75;;;;;;;;;;5028082;28;20025;-79
2023/11/02 05:56:04;;;;;;;4.43;0.80;;;;;;;;;;5024593;28;20026;-79
2023/11/02 05:58:29;;;;;;;3.10;0.80;;;;;;;;;;5019961;28;20022;-79
2023/11/02 06:00:55;;;;;;;2.75;0.68;;;;;;;;;;5023212;28;20494;-80
2023/11/02 06:03:20;;;;;;;1.95;0.80;;;;;;;;;;5022650;28;20033;-80
2023/11/02 06:05:46;;;;;;;2.17;0.80;;;;;;;;;;5028838;28;20556;-80
2023/11/02 06:08:11;;;;;;;3.00;0.82;;;;;;;;;;5029125;28;20496;-80
2023/11/02 06:10:37;;;;;;;1.65;0.63;;;;;;;;;;5026772;28;20067;-80
2023/11/02 06:13:02;;;;;;;4.68;0.80;;;;;;;;;;5026204;28;20032;-80
2023/11/02 06:15:28;;;;;;;2.25;0.73;;;;;;;;;;5031192;28;20032;-80
2023/11/02 06:17:53;;;;;;;1.95;0.80;;;;;;;;;;5027692;28;20082;-80
2023/11/02 06:20:19;;;;;;;4.32;0.98;;;;;;;;;;5023119;28;20037;-80
2023/11/02 06:22:44;;;;;;;2.53;0.75;;;;;;;;;;5024194;28;20028;-80
2023/11/02 06:25:11;;;;;;;3.05;0.80;;;;;;;;;;5029557;28;20029;-80
2023/11/02 06:27:36;;;;;;;2.67;0.90;;;;;;;;;;5026565;28;20367;-80
2023/11/02 06:30:02;;;;;;;1.25;0.60;;;;;;;;;;5029852;28;20036;-80
2023/11/02 06:32:27;;;;;;;4.13;0.90;;;;;;;;;;5019207;28;20691;-81
2023/11/02 06:34:53;;;;;;;2.35;0.60;;;;;;;;;;5020833;28;20437;-81
2023/11/02 06:37:20;;;;;;;1.55;0.80;;;;;;;;;;5029687;28;20025;-81
2023/11/02 06:39:46;;;;;;;2.05;0.70;;;;;;;;;;5020370;28;20026;-82
2023/11/02 06:42:12;;;;;;;2.13;0.70;;;;;;;;;;5043231;28;20441;-81
2023/11/02 06:44:43;;;;;;;4.28;0.82;;;;;;;;;;5027173;28;20120;-84
2023/11/02 06:47:09;;;;;;;1.75;0.70;;;;;;;;;;5026298;28;20519;-83
2023/11/02 06:49:34;;;;;;;1.60;0.60;;;;;;;;;;5037455;28;20367;-85
2023/11/02 06:52:02;;;;;;;3.22;0.80;;;;;;;;;;5025205;28;20026;-85
2023/11/02 06:54:27;;;;;;;3.33;0.75;;;;;;;;;;5025270;28;20022;-86
2023/11/02 06:56:53;;;;;;;2.53;0.70;;;;;;;;;;5026625;28;20076;-86
2023/11/02 06:59:18;;;;;;;1.15;0.50;;;;;;;;;;4983414;28;1104045;-86
2023/11/02 07:01:44;;;;;;;2.85;0.70;;;;;;;;;;5025262;28;20034;-81
2023/11/02 07:04:10;;;;;;;1.40;0.70;;;;;;;;;;5027018;28;20029;-81
2023/11/02 07:06:35;;;;;;;3.35;0.90;;;;;;;;;;5031482;28;20026;-81
2023/11/02 07:09:00;;;;;;;3.22;0.70;;;;;;;;;;5021928;28;20028;-81
2023/11/02 07:11:26;;;;;;;2.55;0.63;;;;;;;;;;5026475;28;20040;-81
2023/11/02 07:13:51;;;;;;;3.25;0.75;;;;;;;;;;5028693;28;20025;-81
2023/11/02 07:16:18;;;;;;;3.22;0.90;;;;;;;;;;5032262;28;20389;-81
2023/11/02 07:18:43;;;;;;;2.00;0.80;;;;;;;;;;5029111;28;20029;-81
2023/11/02 07:21:09;;;;;;;1.17;0.70;;;;;;;;;;5025706;28;20112;-81
2023/11/02 07:23:37;;;;;;;1.63;0.68;;;;;;;;;;5030562;28;20055;-81
2023/11/02 07:26:03;;;;;;;1.73;0.60;;;;;;;;;;5044410;28;20108;-81
2023/11/02 07:28:28;;;;;;;2.55;0.63;;;;;;;;;;5024439;28;20113;-82
2023/11/02 07:30:54;;;;;;;2.85;0.68;;;;;;;;;;5032417;28;20492;-81
2023/11/02 07:33:20;;;;;;;2.88;0.60;;;;;;;;;;5032734;28;20464;-81
2023/11/02 07:35:45;;;;;;;1.55;0.80;;;;;;;;;;5032677;28;20036;-81
2023/11/02 07:38:11;;;;;;;2.30;0.57;;;;;;;;;;5031779;28;20116;-81
2023/11/02 07:40:37;;;;;;;1.15;0.55;;;;;;;;;;5030570;28;20029;-81
2023/11/02 07:43:03;;;;;;;1.50;0.47;;;;;;;;;;5026425;28;20036;-82
2023/11/02 07:45:31;;;;;;;2.83;0.63;;;;;;;;;;5029844;28;20021;-81
2023/11/02 07:47:58;;;;;;;1.33;0.60;;;;;;;;;;5031449;28;20033;-81
2023/11/02 07:50:23;;;;;;;1.52;0.60;;;;;;;;;;5027974;28;20053;-81
2023/11/02 07:52:50;;;;;;;2.15;0.95;;;;;;;;;;5030461;28;20393;-81
2023/11/02 07:55:16;;;;;;;2.17;0.60;;;;;;;;;;5035820;28;20026;-82
2023/11/02 07:57:41;;;;;;;1.52;0.63;;;;;;;;;;5030267;28;20052;-82
2023/11/02 08:00:08;;;;;;;1.67;0.65;;;;;;;;;;5028471;28;20033;-82
2023/11/02 08:02:34;;;;;;;3.33;0.70;;;;;;;;;;5031886;28;20026;-82
2023/11/02 08:04:59;;;;;;;1.65;0.70;;;;;;;;;;5028539;28;20478;-82
2023/11/02 08:07:25;;;;;;;2.30;0.80;;;;;;;;;;5028199;28;20030;-82
2023/11/02 08:09:50;;;;;;;4.68;0.70;;;;;;;;;;5031455;28;20107;-82
2023/11/02 08:12:16;;;;;;;1.13;0.50;;;;;;;;;;5030594;28;20083;-82
2023/11/02 08:14:42;;;;;;;1.25;0.60;;;;;;;;;;5030764;28;20111;-82
2023/11/02 08:17:07;;;;;;;3.38;0.60;;;;;;;;;;5030873;28;20035;-82
2023/11/02 08:19:33;;;;;;;2.65;0.70;;;;;;;;;;5030040;28;20385;-82
2023/11/02 08:21:58;;;;;;;3.25;0.60;;;;;;;;;;5025476;28;20481;-81
2023/11/02 08:24:23;;;;;;;4.32;0.75;;;;;;;;;;5025877;28;20061;-82
2023/11/02 08:26:49;;;;;;;3.53;0.90;;;;;;;;;;5030036;28;20060;-82
2023/11/02 08:29:15;;;;;;;4.00;0.60;;;;;;;;;;5034931;28;20018;-81
2023/11/02 08:31:40;;;;;;;1.35;0.45;;;;;;;;;;5031384;28;20025;-82
2023/11/02 08:34:06;;;;;;;4.68;1.15;;;;;;;;;;5032861;28;20032;-82
2023/11/02 08:36:31;;;;;;;4.30;0.85;;;;;;;;;;5033221;28;20199;-82
2023/11/02 08:38:57;;;;;;;3.50;0.80;;;;;;;;;;5031052;28;20029;-82
2023/11/02 08:41:24;;;;;;;3.63;0.60;;;;;;;;;;5032555;28;20037;-82
2023/11/02 08:43:51;;;;;;;4.13;0.70;;;;;;;;;;5027472;28;20036;-82
2023/11/02 08:46:18;;;;;;;4.70;0.90;;;;;;;;;;5041478;28;20107;-82
2023/11/02 08:48:45;;;;;;;3.40;0.60;;;;;;;;;;5023774;28;20017;-82
2023/11/02 08:51:11;;;;;;;3.13;0.70;;;;;;;;;;5044600;28;20029;-82
2023/11/02 08:53:37;;;;;;;4.03;0.70;;;;;;;;;;5031464;28;20021;-82
2023/11/02 08:56:03;;;;;;;5.82;1.08;;;;;;;;;;5028192;28;20116;-82
2023/11/02 08:58:29;;;;;;;4.13;0.70;;;;;;;;;;5030555;28;20112;-82
2023/11/02 09:00:54;;;;;;;5.57;1.20;;;;;;;;;;5030176;28;20098;-81
2023/11/02 09:03:19;;;;;;;3.10;0.50;;;;;;;;;;5028691;28;20533;-81
2023/11/02 09:05:45;;;;;;;3.92;0.50;;;;;;;;;;5026095;28;20489;-81
2023/11/02 09:08:10;;;;;;;6.50;1.17;;;;;;;;;;5045708;28;20033;-80
2023/11/02 09:10:38;;;;;;;4.82;0.85;;;;;;;;;;5029629;28;20335;-86
2023/11/02 09:13:03;;;;;;;3.80;0.80;;;;;;;;;;5031030;28;20466;-87
2023/11/02 09:15:28;;;;;;;8.82;1.00;;;;;;;;;;5019397;28;20049;-87
2023/11/02 09:17:54;;;;;;;3.40;0.77;;;;;;;;;;5029268;28;20049;-87
2023/11/02 09:20:20;;;;;;;4.20;0.63;;;;;;;;;;5028537;28;20075;-87
2023/11/02 09:22:45;;;;;;;6.32;0.80;;;;;;;;;;5030043;28;20076;-87
2023/11/02 09:25:11;;;;;;;4.85;0.70;;;;;;;;;;5031988;28;20032;-86
2023/11/02 09:27:36;;;;;;;2.60;0.55;;;;;;;;;;5030420;28;20032;-86
2023/11/02 09:30:02;;;;;;;4.28;0.75;;;;;;;;;;5046311;28;20037;-87
2023/11/02 09:32:27;;;;;;;4.47;0.85;;;;;;;;;;5029238;28;20022;-84
2023/11/02 09:34:53;;;;;;;3.63;0.90;;;;;;;;;;5021868;28;20026;-87
2023/11/02 09:37:18;;;;;;;5.55;1.08;;;;;;;;;;5018854;28;20033;-88
2023/11/02 09:39:44;;;;;;;10.20;1.48;;;;;;;;;;5030689;28;20075;-80
2023/11/02 09:42:09;;;;;;;3.33;0.57;;;;;;;;;;5027806;28;20061;-80
2023/11/02 09:44:35;;;;;;;3.88;0.60;;;;;;;;;;5028534;28;20060;-81
2023/11/02 09:47:00;;;;;;;4.78;0.60;;;;;;;;;;5028251;28;20025;-80
2023/11/02 09:49:26;;;;;;;3.83;0.60;;;;;;;;;;5024841;28;20048;-87
2023/11/02 09:51:53;;;;;;;4.53;0.85;;;;;;;;;;5032280;28;20380;-88
2023/11/02 09:54:18;;;;;;;6.30;0.70;;;;;;;;;;5029253;28;20422;-85
2023/11/02 09:56:44;;;;;;;6.05;1.00;;;;;;;;;;5031016;28;20009;-85
2023/11/02 09:59:09;;;;;;;6.82;0.70;;;;;;;;;;5028219;28;20041;-80
2023/11/02 10:01:35;;;;;;;5.45;0.70;;;;;;;;;;5034330;28;20107;-81
2023/11/02 10:04:01;;;;;;;3.90;1.00;;;;;;;;;;5031820;28;20108;-80
2023/11/02 10:06:26;;;;;;;7.47;1.08;;;;;;;;;;5031842;28;20116;-83
2023/11/02 10:08:51;;;;;;;5.95;0.65;;;;;;;;;;5033460;28;20029;-80
2023/11/02 10:11:19;;;;;;;7.13;0.70;;;;;;;;;;5034050;28;20037;-80
2023/11/02 10:13:48;;;;;;;7.70;0.90;;;;;;;;;;5035081;28;20036;-82
2023/11/02 10:16:18;;;;;;;4.10;0.80;;;;;;;;;;5038063;28;20076;-82
2023/11/02 10:18:44;;;;;;;9.13;1.20;;;;;;;;;;5027999;28;20473;-82
2023/11/02 10:21:11;;;;;;;5.03;0.90;;;;;;;;;;5034415;28;20029;-83
2023/11/02 10:23:55;;;;;;;5.35;0.95;;;;;;;;;;5031495;28;20021;-82
2023/11/02 10:26:24;;;;;;;3.83;0.60;;;;;;;;;;5029397;28;20025;-79
2023/11/02 10:28:50;;;;;;;4.05;0.90;;;;;;;;;;5036788;28;20056;-80
2023/11/02 10:31:23;;;;;;;6.20;1.00;;;;;;;;;;5030336;28;20044;-80
2023/11/02 10:33:50;;;;;;;6.13;0.90;;;;;;;;;;5033616;28;20108;-79
2023/11/02 10:36:17;;;;;;;5.20;0.70;;;;;;;;;;5026745;28;20485;-80
2023/11/02 10:38:46;;;;;;;5.90;1.08;;;;;;;;;;5033270;28;20025;-80
2023/11/02 10:41:16;;;;;;;7.97;0.90;;;;;;;;;;5030608;28;20032;-80
2023/11/02 10:43:48;;;;;;;10.45;1.27;;;;;;;;;;5030694;28;20032;-82
2023/11/02 10:46:15;;;;;;;6.97;0.90;;;;;;;;;;5028849;28;20489;-80
2023/11/02 10:48:42;;;;;;;5.55;0.73;;;;;;;;;;5032063;28;20061;-80
2023/11/02 10:51:15;;;;;;;8.27;1.10;;;;;;;;;;5034419;28;20033;-82
2023/11/02 10:53:49;;;;;;;6.30;0.85;;;;;;;;;;5042614;28;20615;-83
2023/11/02 10:56:20;;;;;;;6.82;1.13;;;;;;;;;;5030830;28;20091;-83
2023/11/02 10:58:48;;;;;;;5.75;0.85;;;;;;;;;;5032423;28;20433;-82
2023/11/02 11:01:15;;;;;;;7.43;0.80;;;;;;;;;;5032371;28;20112;-81
2023/11/02 11:03:41;;;;;;;11.48;1.10;;;;;;;;;;5032371;28;20048;-81
2023/11/02 11:06:09;;;;;;;4.70;0.90;;;;;;;;;;5026251;28;20436;-81
2023/11/02 11:08:35;;;;;;;6.60;0.90;;;;;;;;;;5033944;28;20064;-81
2023/11/02 11:11:01;;;;;;;4.55;0.85;;;;;;;;;;5031798;28;20021;-81
2023/11/02 11:13:28;;;;;;;12.65;1.63;;;;;;;;;;5032769;28;20038;-80
2023/11/02 11:15:55;;;;;;;5.38;1.33;;;;;;;;;;5039395;28;20472;-80
2023/11/02 11:18:21;;;;;;;5.38;0.93;;;;;;;;;;5032537;28;20067;-80
2023/11/02 11:20:47;;;;;;;6.32;0.70;;;;;;;;;;5032876;28;20032;-81
2023/11/02 11:23:14;;;;;;;6.75;0.88;;;;;;;;;;5026147;28;20034;-85
2023/11/02 11:25:59;;;;;;;10.40;0.95;;;;;;;;;;5036243;28;20033;-81
2023/11/02 11:28:30;;;;;;;5.90;0.80;;;;;;;;;;5032264;28;20485;-81
2023/11/02 11:30:57;;;;;;;9.32;1.00;;;;;;;;;;5030562;28;20056;-80
2023/11/02 11:33:44;;;;;;;12.32;1.35;;;;;;;;;;5032193;28;20497;-81
2023/11/02 11:36:26;;;;;;;7.30;0.88;;;;;;;;;;5031931;28;20013;-80
2023/11/02 11:38:53;;;;;;;5.88;0.90;;;;;;;;;;5022414;28;20432;-80
2023/11/02 11:41:43;;;;;;;5.28;0.73;;;;;;;;;;5032203;28;20070;-80
2023/11/02 11:44:20;;;;;;;11.88;1.05;;;;;;;;;;5025361;28;20030;-81
2023/11/02 11:46:50;;;;;;;2.60;0.60;;;;;;;;;;5031922;28;20040;-81
2023/11/02 11:49:39;;;;;;;8.02;0.90;;;;;;;;;;5032133;28;20025;-81
2023/11/02 11:52:21;;;;;;;7.53;1.00;;;;;;;;;;5023362;28;20363;-81
2023/11/02 11:54:47;;;;;;;5.68;1.08;;;;;;;;;;5032038;28;20029;-80
2023/11/02 11:57:49;;;;;;;5.32;0.70;;;;;;;;;;5030463;28;20036;-81
2023/11/02 12:00:15;;;;;;;5.00;0.70;;;;;;;;;;5030773;28;20025;-81
2023/11/02 12:02:41;;;;;;;7.50;1.33;;;;;;;;;;5024041;28;20021;-83
2023/11/02 12:05:07;;;;;;;3.50;0.65;;;;;;;;;;5029574;28;20029;-83
2023/11/02 12:07:36;;;;;;;7.57;0.80;;;;;;;;;;5031530;28;20040;-83
2023/11/02 12:10:03;;;;;;;4.45;0.80;;;;;;;;;;5032733;28;20089;-83
2023/11/02 12:12:29;;;;;;;5.32;0.70;;;;;;;;;;5034241;28;20025;-83
2023/11/02 12:14:55;;;;;;;5.78;1.00;;;;;;;;;;5021619;28;20029;-83
2023/11/02 12:17:20;;;;;;;4.35;0.75;;;;;;;;;;5024433;28;20022;-83
2023/11/02 12:19:45;;;;;;;4.47;0.95;;;;;;;;;;5027188;28;20030;-83
2023/11/02 12:22:11;;;;;;;4.40;1.00;;;;;;;;;;5031427;28;20052;-83
2023/11/02 12:24:38;;;;;;;9.63;1.70;;;;;;;;;;5036983;28;20397;-83
2023/11/02 12:27:15;;;;;;;8.18;1.20;;;;;;;;;;5044207;28;20032;-84
2023/11/02 12:29:59;;;;;;;4.63;0.80;;;;;;;;;;5028491;28;20025;-83
2023/11/02 12:32:24;;;;;;;5.97;1.00;;;;;;;;;;5028481;28;20032;-84
2023/11/02 12:34:54;;;;;;;6.28;0.80;;;;;;;;;;5029024;28;20035;-80
2023/11/02 12:37:19;;;;;;;4.20;0.95;;;;;;;;;;5028699;28;20494;-81
2023/11/02 12:39:57;;;;;;;5.43;1.00;;;;;;;;;;5025493;28;20060;-80
2023/11/02 12:42:23;;;;;;;5.72;1.00;;;;;;;;;;5031314;28;20039;-80
2023/11/02 12:44:51;;;;;;;6.55;0.75;;;;;;;;;;5030043;28;20049;-81
2023/11/02 12:47:16;;;;;;;4.35;0.80;;;;;;;;;;5024736;28;20550;-81
2023/11/02 12:49:41;;;;;;;4.20;0.60;;;;;;;;;;5031427;28;20086;-81
2023/11/02 12:52:09;;;;;;;6.10;0.95;;;;;;;;;;5028316;28;20030;-81
2023/11/02 12:54:37;;;;;;;4.97;0.80;;;;;;;;;;5039286;28;20394;-81
2023/11/02 12:57:07;;;;;;;4.35;0.68;;;;;;;;;;5032221;28;20033;-81
2023/11/02 12:59:45;;;;;;;4.43;0.60;;;;;;;;;;5030768;28;20116;-81
2023/11/02 13:02:22;;;;;;;7.18;0.80;;;;;;;;;;5026849;28;20156;-84
2023/11/02 13:04:56;;;;;;;4.70;0.68;;;;;;;;;;5027899;28;20112;-83
2023/11/02 13:07:31;;;;;;;6.78;0.98;;;;;;;;;;5042575;28;20030;-85
2023/11/02 13:10:16;;;;;;;5.00;0.82;;;;;;;;;;5042026;28;20074;-84
2023/11/02 13:12:44;;;;;;;4.32;1.30;;;;;;;;;;5019406;28;20037;-83
2023/11/02 13:15:11;;;;;;;5.60;0.70;;;;;;;;;;5031047;28;20032;-84
2023/11/02 13:17:43;;;;;;;7.03;0.60;;;;;;;;;;5028304;28;20029;-84
2023/11/02 13:20:09;;;;;;;5.43;0.75;;;;;;;;;;5028129;28;20498;-84
2023/11/02 13:22:35;;;;;;;4.82;0.77;;;;;;;;;;5030605;28;20025;-83
2023/11/02 13:25:01;;;;;;;4.45;0.63;;;;;;;;;;5030411;28;20035;-84
2023/11/02 13:27:27;;;;;;;4.45;1.00;;;;;;;;;;5034651;28;20022;-81
2023/11/02 13:29:53;;;;;;;5.70;0.70;;;;;;;;;;5032078;28;20033;-85
2023/11/02 13:32:18;;;;;;;5.40;0.70;;;;;;;;;;5034621;28;20082;-83
2023/11/02 13:34:44;;;;;;;3.70;1.02;;;;;;;;;;5029603;28;20313;-84
2023/11/02 13:37:13;;;;;;;4.75;0.75;;;;;;;;;;5033771;28;20057;-84
2023/11/02 13:39:38;;;;;;;6.90;0.90;;;;;;;;;;5033913;28;20388;-83
2023/11/02 13:42:05;;;;;;;7.30;0.70;;;;;;;;;;5035223;28;20033;-82
2023/11/02 13:44:31;;;;;;;5.55;0.90;;;;;;;;;;5030159;28;20492;-83
2023/11/02 13:46:56;;;;;;;5.45;0.80;;;;;;;;;;5034507;28;20029;-83
2023/11/02 13:49:22;;;;;;;7.05;0.98;;;;;;;;;;5032946;28;20036;-83
2023/11/02 13:51:48;;;;;;;6.45;0.70;;;;;;;;;;5043290;28;20026;-84
2023/11/02 13:54:13;;;;;;;4.70;0.80;;;;;;;;;;5032689;28;20100;-83
2023/11/02 13:56:39;;;;;;;7.05;1.65;;;;;;;;;;5033292;28;20033;-83
2023/11/02 13:59:04;;;;;;;3.63;0.63;;;;;;;;;;5034610;28;20087;-80
2023/11/02 14:01:29;;;;;;;5.15;0.88;;;;;;;;;;5035948;28;20500;-80
2023/11/02 14:03:55;;;;;;;4.13;0.80;;;;;;;;;;5033559;28;20488;-81
2023/11/02 14:06:20;;;;;;;5.68;0.80;;;;;;;;;;5047984;28;20037;-82
2023/11/02 14:08:46;;;;;;;3.80;0.60;;;;;;;;;;5033506;28;20385;-82
2023/11/02 14:11:12;;;;;;;4.90;0.70;;;;;;;;;;5047555;28;20036;-82
2023/11/02 14:13:38;;;;;;;3.78;0.80;;;;;;;;;;5028576;28;20417;-82
2023/11/02 14:16:05;;;;;;;3.80;0.63;;;;;;;;;;5033607;28;20033;-81
2023/11/02 14:18:31;;;;;;;6.65;0.82;;;;;;;;;;5048655;28;20017;-81
2023/11/02 14:20:57;;;;;;;4.05;0.73;;;;;;;;;;5032843;28;20022;-86
2023/11/02 14:23:22;;;;;;;4.45;0.80;;;;;;;;;;5049654;28;20028;-86
2023/11/02 14:25:48;;;;;;;5.40;0.90;;;;;;;;;;5030387;28;20426;-85
2023/11/02 14:28:13;;;;;;;5.50;0.93;;;;;;;;;;5032649;28;20029;-87
2023/11/02 14:30:39;;;;;;;4.53;0.68;;;;;;;;;;5034046;28;20021;-86
2023/11/02 14:33:04;;;;;;;5.70;0.98;;;;;;;;;;5031170;28;20033;-89
2023/11/02 14:35:30;;;;;;;4.57;1.42;;;;;;;;;;5028802;28;20021;-89
2023/11/02 14:37:58;;;;;;;7.95;0.80;;;;;;;;;;5031699;28;20032;-85
2023/11/02 14:40:24;;;;;;;3.10;0.70;;;;;;;;;;5046159;28;20058;-86
2023/11/02 14:42:49;;;;;;;4.22;0.70;;;;;;;;;;5033429;28;20021;-87
2023/11/02 14:45:17;;;;;;;4.43;0.50;;;;;;;;;;5032036;28;20056;-86
2023/11/02 14:47:44;;;;;;;5.57;1.00;;;;;;;;;;5033715;28;20037;-86
2023/11/02 14:50:10;;;;;;;2.55;0.68;;;;;;;;;;5032527;28;20052;-84
2023/11/02 14:52:36;;;;;;;7.38;0.88;;;;;;;;;;5031244;28;20488;-85
2023/11/02 14:55:03;;;;;;;3.13;0.70;;;;;;;;;;5029276;28;20432;-85
2023/11/02 14:57:29;;;;;;;4.18;0.75;;;;;;;;;;5031869;28;20087;-86
2023/11/02 14:59:54;;;;;;;3.10;0.75;;;;;;;;;;5032222;28;20030;-85